sensor_id;sensor_type;location;lat;lon;timestamp;pressure;altitude;pressure_sealevel;temperature;humidity
35848;BME280;22332;51.954;20.118;2023-02-18T00:01:28;99275.48;;;6.89;69.06
35848;BME280;22332;51.954;20.118;2023-02-18T00:04:34;99273.55;;;6.84;69.10
35848;BME280;22332;51.954;20.118;2023-02-18T00:07:40;99281.27;;;6.81;69.08
35848;BME280;22332;51.954;20.118;2023-02-18T00:10:46;99285.80;;;6.80;68.75
35848;BME280;22332;51.954;20.118;2023-02-18T00:13:53;99288.30;;;6.81;68.60
35848;BME280;22332;51.954;20.118;2023-02-18T00:16:59;99286.16;;;6.83;67.93
35848;BME280;22332;51.954;20.118;2023-02-18T00:20:07;99284.09;;;6.88;67.72
35848;BME280;22332;51.954;20.118;2023-02-18T00:23:12;99296.58;;;6.91;66.72
35848;BME280;22332;51.954;20.118;2023-02-18T00:26:19;99292.83;;;6.95;68.00
35848;BME280;22332;51.954;20.118;2023-02-18T00:29:25;99288.00;;;6.95;68.96
35848;BME280;22332;51.954;20.118;2023-02-18T00:32:30;99286.80;;;6.93;67.96
35848;BME280;22332;51.954;20.118;2023-02-18T00:35:38;99288.45;;;6.92;67.40
35848;BME280;22332;51.954;20.118;2023-02-18T00:38:46;99291.96;;;6.94;68.17
35848;BME280;22332;51.954;20.118;2023-02-18T00:41:52;99282.05;;;6.95;67.97
35848;BME280;22332;51.954;20.118;2023-02-18T00:44:57;99278.10;;;6.97;68.79
35848;BME280;22332;51.954;20.118;2023-02-18T00:48:03;99275.67;;;6.98;68.84
35848;BME280;22332;51.954;20.118;2023-02-18T00:51:09;99291.05;;;6.96;67.26
35848;BME280;22332;51.954;20.118;2023-02-18T00:54:15;99292.34;;;6.96;67.49
35848;BME280;22332;51.954;20.118;2023-02-18T00:57:21;99296.10;;;6.94;67.66
35848;BME280;22332;51.954;20.118;2023-02-18T01:00:27;99299.16;;;6.89;67.55
35848;BME280;22332;51.954;20.118;2023-02-18T01:03:32;99292.80;;;6.88;67.91
35848;BME280;22332;51.954;20.118;2023-02-18T01:06:38;99288.45;;;6.83;68.40
35848;BME280;22332;51.954;20.118;2023-02-18T01:09:44;99288.05;;;6.79;67.53
35848;BME280;22332;51.954;20.118;2023-02-18T01:12:51;99290.23;;;6.74;67.21
35848;BME280;22332;51.954;20.118;2023-02-18T01:15:57;99289.95;;;6.74;68.05
35848;BME280;22332;51.954;20.118;2023-02-18T01:19:02;99290.39;;;6.73;67.48
35848;BME280;22332;51.954;20.118;2023-02-18T01:22:08;99292.54;;;6.73;68.02
35848;BME280;22332;51.954;20.118;2023-02-18T01:25:14;99280.12;;;6.73;67.16
35848;BME280;22332;51.954;20.118;2023-02-18T01:28:20;99282.29;;;6.74;67.22
35848;BME280;22332;51.954;20.118;2023-02-18T01:31:28;99282.52;;;6.74;67.01
35848;BME280;22332;51.954;20.118;2023-02-18T01:34:36;99282.93;;;6.73;66.98
35848;BME280;22332;51.954;20.118;2023-02-18T01:37:42;99282.73;;;6.74;67.22
35848;BME280;22332;51.954;20.118;2023-02-18T01:40:50;99279.39;;;6.69;67.07
35848;BME280;22332;51.954;20.118;2023-02-18T01:44:16;99279.74;;;6.64;66.69
35848;BME280;22332;51.954;20.118;2023-02-18T01:47:23;99280.12;;;6.59;66.86
35848;BME280;22332;51.954;20.118;2023-02-18T01:50:29;99276.67;;;6.56;66.65
35848;BME280;22332;51.954;20.118;2023-02-18T01:53:39;99289.85;;;6.51;67.13
35848;BME280;22332;51.954;20.118;2023-02-18T01:56:50;99287.70;;;6.44;66.56
35848;BME280;22332;51.954;20.118;2023-02-18T02:00:05;99289.41;;;6.40;66.23
35848;BME280;22332;51.954;20.118;2023-02-18T02:03:24;99298.50;;;6.31;65.97
35848;BME280;22332;51.954;20.118;2023-02-18T02:06:29;99303.73;;;6.26;65.90
35848;BME280;22332;51.954;20.118;2023-02-18T02:09:36;99305.20;;;6.20;66.23
35848;BME280;22332;51.954;20.118;2023-02-18T02:12:54;99299.94;;;6.15;66.40
35848;BME280;22332;51.954;20.118;2023-02-18T02:16:07;99298.27;;;6.08;66.56
35848;BME280;22332;51.954;20.118;2023-02-18T02:19:24;99294.56;;;6.05;66.73
35848;BME280;22332;51.954;20.118;2023-02-18T02:23:21;99297.36;;;6.01;66.42
35848;BME280;22332;51.954;20.118;2023-02-18T02:26:49;99292.66;;;5.99;66.32
35848;BME280;22332;51.954;20.118;2023-02-18T02:37:22;99283.84;;;5.93;66.90
35848;BME280;22332;51.954;20.118;2023-02-18T02:40:35;99287.81;;;5.89;66.59
35848;BME280;22332;51.954;20.118;2023-02-18T02:43:52;99283.26;;;5.87;66.77
35848;BME280;22332;51.954;20.118;2023-02-18T02:47:04;99294.00;;;5.86;66.68
35848;BME280;22332;51.954;20.118;2023-02-18T02:50:15;99296.55;;;5.83;66.19
35848;BME280;22332;51.954;20.118;2023-02-18T02:53:26;99297.59;;;5.80;66.15
35848;BME280;22332;51.954;20.118;2023-02-18T02:56:33;99291.10;;;5.77;66.46
35848;BME280;22332;51.954;20.118;2023-02-18T02:59:42;99294.65;;;5.75;66.48
35848;BME280;22332;51.954;20.118;2023-02-18T03:03:02;99296.52;;;5.73;66.56
35848;BME280;22332;51.954;20.118;2023-02-18T03:06:28;99300.14;;;5.69;66.27
35848;BME280;22332;51.954;20.118;2023-02-18T03:09:46;99303.27;;;5.68;66.29
35848;BME280;22332;51.954;20.118;2023-02-18T03:13:06;99307.55;;;5.66;65.98
35848;BME280;22332;51.954;20.118;2023-02-18T03:16:23;99317.27;;;5.64;66.50
35848;BME280;22332;51.954;20.118;2023-02-18T03:19:34;99319.89;;;5.62;66.08
35848;BME280;22332;51.954;20.118;2023-02-18T03:22:45;99318.12;;;5.62;66.16
35848;BME280;22332;51.954;20.118;2023-02-18T03:25:52;99327.23;;;5.61;66.22
35848;BME280;22332;51.954;20.118;2023-02-18T03:29:01;99309.29;;;5.60;66.21
35848;BME280;22332;51.954;20.118;2023-02-18T03:32:08;99322.77;;;5.60;66.23
35848;BME280;22332;51.954;20.118;2023-02-18T03:35:18;99326.92;;;5.57;66.33
35848;BME280;22332;51.954;20.118;2023-02-18T03:38:27;99333.84;;;5.54;66.41
35848;BME280;22332;51.954;20.118;2023-02-18T03:41:35;99344.73;;;5.53;66.59
35848;BME280;22332;51.954;20.118;2023-02-18T03:44:41;99348.67;;;5.52;66.54
35848;BME280;22332;51.954;20.118;2023-02-18T03:47:46;99348.09;;;5.51;66.69
35848;BME280;22332;51.954;20.118;2023-02-18T03:50:53;99351.10;;;5.49;66.71
35848;BME280;22332;51.954;20.118;2023-02-18T03:53:58;99349.20;;;5.46;66.36
35848;BME280;22332;51.954;20.118;2023-02-18T03:57:04;99358.27;;;5.44;66.50
35848;BME280;22332;51.954;20.118;2023-02-18T04:00:11;99361.59;;;5.42;66.84
35848;BME280;22332;51.954;20.118;2023-02-18T04:03:19;99367.18;;;5.41;66.81
35848;BME280;22332;51.954;20.118;2023-02-18T04:06:25;99365.73;;;5.40;66.80
35848;BME280;22332;51.954;20.118;2023-02-18T04:09:31;99371.10;;;5.39;67.13
35848;BME280;22332;51.954;20.118;2023-02-18T04:12:36;99369.27;;;5.36;67.01
35848;BME280;22332;51.954;20.118;2023-02-18T04:15:42;99373.52;;;5.34;66.92
35848;BME280;22332;51.954;20.118;2023-02-18T04:18:48;99370.30;;;5.30;66.96
35848;BME280;22332;51.954;20.118;2023-02-18T04:21:53;99370.30;;;5.28;67.11
35848;BME280;22332;51.954;20.118;2023-02-18T04:24:59;99382.95;;;5.27;67.10
35848;BME280;22332;51.954;20.118;2023-02-18T04:28:05;99387.45;;;5.26;67.19
35848;BME280;22332;51.954;20.118;2023-02-18T04:31:11;99397.00;;;5.24;67.44
35848;BME280;22332;51.954;20.118;2023-02-18T04:34:17;99403.54;;;5.20;67.41
35848;BME280;22332;51.954;20.118;2023-02-18T04:37:22;99393.66;;;5.18;67.44
35848;BME280;22332;51.954;20.118;2023-02-18T04:40:28;99402.13;;;5.18;67.51
35848;BME280;22332;51.954;20.118;2023-02-18T04:43:34;99406.74;;;5.17;67.61
35848;BME280;22332;51.954;20.118;2023-02-18T04:46:39;99410.86;;;5.15;67.56
35848;BME280;22332;51.954;20.118;2023-02-18T04:49:45;99408.52;;;5.13;67.76
35848;BME280;22332;51.954;20.118;2023-02-18T04:52:50;99407.00;;;5.13;67.62
35848;BME280;22332;51.954;20.118;2023-02-18T04:55:56;99413.06;;;5.12;67.71
35848;BME280;22332;51.954;20.118;2023-02-18T04:59:02;99403.59;;;5.11;67.61
35848;BME280;22332;51.954;20.118;2023-02-18T05:02:08;99405.01;;;5.11;67.40
35848;BME280;22332;51.954;20.118;2023-02-18T05:05:14;99395.10;;;5.11;67.49
35848;BME280;22332;51.954;20.118;2023-02-18T05:08:20;99382.64;;;5.13;67.33
35848;BME280;22332;51.954;20.118;2023-02-18T05:11:25;99387.86;;;5.14;67.48
35848;BME280;22332;51.954;20.118;2023-02-18T05:14:31;99395.73;;;5.14;67.17
35848;BME280;22332;51.954;20.118;2023-02-18T05:17:37;99398.59;;;5.14;67.36
35848;BME280;22332;51.954;20.118;2023-02-18T05:20:43;99402.34;;;5.15;67.43
35848;BME280;22332;51.954;20.118;2023-02-18T05:23:49;99417.70;;;5.17;67.66
35848;BME280;22332;51.954;20.118;2023-02-18T05:26:54;99412.09;;;5.19;67.69
35848;BME280;22332;51.954;20.118;2023-02-18T05:30:00;99404.72;;;5.20;67.66
35848;BME280;22332;51.954;20.118;2023-02-18T05:33:06;99401.09;;;5.19;67.89
35848;BME280;22332;51.954;20.118;2023-02-18T05:36:11;99386.05;;;5.16;67.77
35848;BME280;22332;51.954;20.118;2023-02-18T05:39:17;99381.58;;;5.15;67.80
35848;BME280;22332;51.954;20.118;2023-02-18T05:42:22;99388.18;;;5.12;67.86
35848;BME280;22332;51.954;20.118;2023-02-18T05:45:28;99369.05;;;5.09;67.93
35848;BME280;22332;51.954;20.118;2023-02-18T05:48:33;99376.71;;;5.06;68.05
35848;BME280;22332;51.954;20.118;2023-02-18T05:51:39;99402.73;;;5.05;68.06
35848;BME280;22332;51.954;20.118;2023-02-18T05:54:44;99407.41;;;5.08;68.47
35848;BME280;22332;51.954;20.118;2023-02-18T05:57:50;99404.55;;;5.14;68.07
35848;BME280;22332;51.954;20.118;2023-02-18T06:00:56;99406.02;;;5.21;67.98
35848;BME280;22332;51.954;20.118;2023-02-18T06:04:01;99414.59;;;5.24;67.86
35848;BME280;22332;51.954;20.118;2023-02-18T06:07:07;99419.33;;;5.24;67.52
35848;BME280;22332;51.954;20.118;2023-02-18T06:10:13;99434.46;;;5.25;67.83
35848;BME280;22332;51.954;20.118;2023-02-18T06:13:18;99430.10;;;5.24;67.72
35848;BME280;22332;51.954;20.118;2023-02-18T06:16:24;99438.33;;;5.23;67.60
35848;BME280;22332;51.954;20.118;2023-02-18T06:19:30;99450.14;;;5.23;67.99
35848;BME280;22332;51.954;20.118;2023-02-18T06:22:35;99447.45;;;5.25;67.93
35848;BME280;22332;51.954;20.118;2023-02-18T06:25:41;99436.89;;;5.25;67.49
35848;BME280;22332;51.954;20.118;2023-02-18T06:28:47;99447.14;;;5.25;67.81
35848;BME280;22332;51.954;20.118;2023-02-18T06:31:52;99437.41;;;5.25;67.75
35848;BME280;22332;51.954;20.118;2023-02-18T06:34:58;99441.71;;;5.25;67.87
35848;BME280;22332;51.954;20.118;2023-02-18T06:38:03;99440.48;;;5.24;67.65
35848;BME280;22332;51.954;20.118;2023-02-18T06:41:09;99449.28;;;5.25;67.87
35848;BME280;22332;51.954;20.118;2023-02-18T06:44:15;99457.56;;;5.27;68.08
35848;BME280;22332;51.954;20.118;2023-02-18T06:47:21;99453.19;;;5.28;67.61
35848;BME280;22332;51.954;20.118;2023-02-18T06:50:27;99468.27;;;5.31;67.63
35848;BME280;22332;51.954;20.118;2023-02-18T06:53:32;99479.91;;;5.33;67.18
35848;BME280;22332;51.954;20.118;2023-02-18T06:56:38;99470.59;;;5.35;67.51
35848;BME280;22332;51.954;20.118;2023-02-18T06:59:45;99480.03;;;5.37;67.50
35848;BME280;22332;51.954;20.118;2023-02-18T07:02:50;99484.14;;;5.41;67.31
35848;BME280;22332;51.954;20.118;2023-02-18T07:05:56;99495.02;;;5.47;66.96
35848;BME280;22332;51.954;20.118;2023-02-18T07:09:02;99501.98;;;5.54;67.26
35848;BME280;22332;51.954;20.118;2023-02-18T07:12:07;99499.19;;;5.66;67.49
35848;BME280;22332;51.954;20.118;2023-02-18T07:15:13;99502.44;;;5.76;67.06
35848;BME280;22332;51.954;20.118;2023-02-18T07:18:18;99503.11;;;5.84;67.08
35848;BME280;22332;51.954;20.118;2023-02-18T07:21:24;99502.98;;;5.92;66.72
35848;BME280;22332;51.954;20.118;2023-02-18T07:24:29;99502.00;;;5.99;67.05
35848;BME280;22332;51.954;20.118;2023-02-18T07:27:35;99502.69;;;5.97;66.33
35848;BME280;22332;51.954;20.118;2023-02-18T07:30:41;99511.63;;;5.94;66.58
35848;BME280;22332;51.954;20.118;2023-02-18T07:33:46;99507.89;;;5.90;66.82
35848;BME280;22332;51.954;20.118;2023-02-18T07:36:52;99503.63;;;5.90;67.05
35848;BME280;22332;51.954;20.118;2023-02-18T07:39:58;99508.15;;;5.95;66.84
35848;BME280;22332;51.954;20.118;2023-02-18T07:43:03;99500.24;;;5.99;66.59
35848;BME280;22332;51.954;20.118;2023-02-18T07:46:09;99501.38;;;6.00;66.77
35848;BME280;22332;51.954;20.118;2023-02-18T07:49:14;99504.95;;;6.03;66.47
35848;BME280;22332;51.954;20.118;2023-02-18T07:52:20;99502.96;;;6.07;66.21
35848;BME280;22332;51.954;20.118;2023-02-18T07:55:26;99507.22;;;6.07;65.87
35848;BME280;22332;51.954;20.118;2023-02-18T07:58:52;99499.77;;;6.13;65.91
35848;BME280;22332;51.954;20.118;2023-02-18T08:01:58;99504.57;;;6.20;65.56
35848;BME280;22332;51.954;20.118;2023-02-18T08:05:03;99504.59;;;6.34;65.45
35848;BME280;22332;51.954;20.118;2023-02-18T08:08:10;99513.80;;;6.43;64.64
35848;BME280;22332;51.954;20.118;2023-02-18T08:11:17;99502.23;;;6.47;65.32
35848;BME280;22332;51.954;20.118;2023-02-18T08:14:22;99504.23;;;6.54;64.69
35848;BME280;22332;51.954;20.118;2023-02-18T08:17:28;99505.75;;;6.66;64.59
35848;BME280;22332;51.954;20.118;2023-02-18T08:20:36;99497.20;;;6.77;63.79
35848;BME280;22332;51.954;20.118;2023-02-18T08:23:41;99509.59;;;6.76;63.26
35848;BME280;22332;51.954;20.118;2023-02-18T08:26:47;99501.73;;;6.71;63.14
35848;BME280;22332;51.954;20.118;2023-02-18T08:29:52;99495.92;;;6.79;64.86
35848;BME280;22332;51.954;20.118;2023-02-18T08:32:59;99505.13;;;6.80;63.19
35848;BME280;22332;51.954;20.118;2023-02-18T08:36:08;99491.90;;;6.77;63.53
35848;BME280;22332;51.954;20.118;2023-02-18T08:39:14;99482.62;;;6.77;63.91
35848;BME280;22332;51.954;20.118;2023-02-18T08:42:19;99488.82;;;6.77;63.28
35848;BME280;22332;51.954;20.118;2023-02-18T08:45:25;99498.80;;;6.83;63.07
35848;BME280;22332;51.954;20.118;2023-02-18T08:48:31;99499.57;;;6.96;63.31
35848;BME280;22332;51.954;20.118;2023-02-18T08:51:37;99497.00;;;7.02;61.85
35848;BME280;22332;51.954;20.118;2023-02-18T08:54:42;99487.88;;;7.00;62.43
35848;BME280;22332;51.954;20.118;2023-02-18T08:57:48;99501.16;;;7.12;62.25
35848;BME280;22332;51.954;20.118;2023-02-18T09:00:53;99497.60;;;7.15;61.48
35848;BME280;22332;51.954;20.118;2023-02-18T09:03:59;99500.69;;;7.19;61.93
35848;BME280;22332;51.954;20.118;2023-02-18T09:07:05;99507.62;;;7.22;61.62
35848;BME280;22332;51.954;20.118;2023-02-18T09:10:11;99507.91;;;7.28;62.41
35848;BME280;22332;51.954;20.118;2023-02-18T09:13:16;99508.58;;;7.29;61.90
35848;BME280;22332;51.954;20.118;2023-02-18T09:16:22;99513.52;;;7.29;61.65
35848;BME280;22332;51.954;20.118;2023-02-18T09:19:28;99516.01;;;7.32;61.56
35848;BME280;22332;51.954;20.118;2023-02-18T09:22:34;99513.42;;;7.35;61.49
35848;BME280;22332;51.954;20.118;2023-02-18T09:25:41;99504.91;;;7.44;62.26
35848;BME280;22332;51.954;20.118;2023-02-18T09:28:46;99518.36;;;7.48;60.84
35848;BME280;22332;51.954;20.118;2023-02-18T09:31:52;99507.88;;;7.45;62.17
35848;BME280;22332;51.954;20.118;2023-02-18T09:34:58;99513.09;;;7.55;62.46
35848;BME280;22332;51.954;20.118;2023-02-18T09:38:04;99518.92;;;7.60;62.11
35848;BME280;22332;51.954;20.118;2023-02-18T09:41:17;99524.44;;;7.51;62.02
35848;BME280;22332;51.954;20.118;2023-02-18T09:44:29;99539.80;;;7.52;62.48
35848;BME280;22332;51.954;20.118;2023-02-18T09:47:40;99539.15;;;7.53;62.83
35848;BME280;22332;51.954;20.118;2023-02-18T09:50:49;99540.27;;;7.56;61.98
35848;BME280;22332;51.954;20.118;2023-02-18T09:53:56;99542.05;;;7.54;61.71
35848;BME280;22332;51.954;20.118;2023-02-18T09:57:04;99548.86;;;7.51;62.31
35848;BME280;22332;51.954;20.118;2023-02-18T10:00:16;99556.37;;;7.52;61.57
35848;BME280;22332;51.954;20.118;2023-02-18T10:03:25;99548.00;;;7.45;61.25
35848;BME280;22332;51.954;20.118;2023-02-18T10:06:33;99545.73;;;7.48;62.05
35848;BME280;22332;51.954;20.118;2023-02-18T10:09:40;99548.06;;;7.56;61.67
35848;BME280;22332;51.954;20.118;2023-02-18T10:12:45;99551.21;;;7.58;61.64
35848;BME280;22332;51.954;20.118;2023-02-18T10:15:52;99562.77;;;7.56;61.52
35848;BME280;22332;51.954;20.118;2023-02-18T10:18:58;99550.86;;;7.56;61.59
35848;BME280;22332;51.954;20.118;2023-02-18T10:22:07;99567.59;;;7.59;61.55
35848;BME280;22332;51.954;20.118;2023-02-18T10:25:19;99554.73;;;7.55;61.81
35848;BME280;22332;51.954;20.118;2023-02-18T10:28:26;99556.46;;;7.51;61.90
35848;BME280;22332;51.954;20.118;2023-02-18T10:31:34;99560.60;;;7.45;61.48
35848;BME280;22332;51.954;20.118;2023-02-18T10:34:45;99551.48;;;7.40;60.99
35848;BME280;22332;51.954;20.118;2023-02-18T10:38:01;99564.33;;;7.34;61.09
35848;BME280;22332;51.954;20.118;2023-02-18T10:41:15;99542.43;;;7.30;61.29
35848;BME280;22332;51.954;20.118;2023-02-18T10:44:32;99541.73;;;7.28;61.73
35848;BME280;22332;51.954;20.118;2023-02-18T10:47:49;99540.93;;;7.33;61.47
35848;BME280;22332;51.954;20.118;2023-02-18T10:51:00;99537.83;;;7.33;61.24
35848;BME280;22332;51.954;20.118;2023-02-18T10:54:07;99540.75;;;7.40;61.33
35848;BME280;22332;51.954;20.118;2023-02-18T10:57:18;99541.23;;;7.38;60.81
35848;BME280;22332;51.954;20.118;2023-02-18T11:00:25;99544.67;;;7.41;60.97
35848;BME280;22332;51.954;20.118;2023-02-18T11:03:43;99542.06;;;7.36;60.67
35848;BME280;22332;51.954;20.118;2023-02-18T11:06:50;99541.08;;;7.37;60.97
35848;BME280;22332;51.954;20.118;2023-02-18T11:09:57;99538.02;;;7.40;61.37
35848;BME280;22332;51.954;20.118;2023-02-18T11:13:07;99534.19;;;7.44;60.80
35848;BME280;22332;51.954;20.118;2023-02-18T11:16:13;99531.94;;;7.41;60.48
35848;BME280;22332;51.954;20.118;2023-02-18T11:19:38;99538.03;;;7.35;60.23
35848;BME280;22332;51.954;20.118;2023-02-18T11:22:44;99538.45;;;7.34;61.02
35848;BME280;22332;51.954;20.118;2023-02-18T11:25:56;99535.30;;;7.36;60.52
35848;BME280;22332;51.954;20.118;2023-02-18T11:29:06;99519.85;;;7.35;60.71
35848;BME280;22332;51.954;20.118;2023-02-18T11:32:13;99520.41;;;7.36;60.56
35848;BME280;22332;51.954;20.118;2023-02-18T11:35:20;99519.20;;;7.39;60.19
35848;BME280;22332;51.954;20.118;2023-02-18T11:38:33;99531.80;;;7.39;60.57
35848;BME280;22332;51.954;20.118;2023-02-18T11:41:42;99532.53;;;7.48;60.84
35848;BME280;22332;51.954;20.118;2023-02-18T11:44:52;99531.73;;;7.53;60.89
35848;BME280;22332;51.954;20.118;2023-02-18T11:48:07;99527.84;;;7.51;59.94
35848;BME280;22332;51.954;20.118;2023-02-18T11:51:22;99519.58;;;7.37;59.59
35848;BME280;22332;51.954;20.118;2023-02-18T11:54:29;99513.83;;;7.33;60.53
35848;BME280;22332;51.954;20.118;2023-02-18T11:57:37;99510.44;;;7.39;60.04
35848;BME280;22332;51.954;20.118;2023-02-18T12:00:45;99499.88;;;7.45;60.81
35848;BME280;22332;51.954;20.118;2023-02-18T12:03:54;99494.66;;;7.57;60.13
35848;BME280;22332;51.954;20.118;2023-02-18T12:07:09;99491.54;;;7.53;59.86
35848;BME280;22332;51.954;20.118;2023-02-18T12:10:24;99484.02;;;7.55;60.64
35848;BME280;22332;51.954;20.118;2023-02-18T12:13:34;99478.29;;;7.68;60.65
35848;BME280;22332;51.954;20.118;2023-02-18T12:16:48;99476.11;;;7.74;60.08
35848;BME280;22332;51.954;20.118;2023-02-18T12:20:24;99473.21;;;7.77;60.04
35848;BME280;22332;51.954;20.118;2023-02-18T12:23:37;99470.38;;;7.85;60.01
35848;BME280;22332;51.954;20.118;2023-02-18T12:26:56;99458.53;;;7.94;59.89
35848;BME280;22332;51.954;20.118;2023-02-18T12:30:46;99451.57;;;8.07;60.18
35848;BME280;22332;51.954;20.118;2023-02-18T12:34:06;99451.27;;;8.13;59.52
35848;BME280;22332;51.954;20.118;2023-02-18T12:37:33;99443.24;;;8.16;59.48
35848;BME280;22332;51.954;20.118;2023-02-18T12:40:59;99439.73;;;8.19;59.36
35848;BME280;22332;51.954;20.118;2023-02-18T12:44:29;99435.98;;;8.17;59.20
35848;BME280;22332;51.954;20.118;2023-02-18T12:47:50;99430.90;;;8.17;58.91
35848;BME280;22332;51.954;20.118;2023-02-18T12:51:13;99439.29;;;8.13;59.15
35848;BME280;22332;51.954;20.118;2023-02-18T12:54:31;99441.20;;;8.04;59.35
35848;BME280;22332;51.954;20.118;2023-02-18T12:57:44;99444.52;;;7.89;58.19
35848;BME280;22332;51.954;20.118;2023-02-18T13:01:03;99432.95;;;7.77;59.33
35848;BME280;22332;51.954;20.118;2023-02-18T13:04:32;99424.42;;;7.79;60.03
35848;BME280;22332;51.954;20.118;2023-02-18T13:07:49;99425.52;;;7.84;60.09
35848;BME280;22332;51.954;20.118;2023-02-18T13:11:12;99417.42;;;7.78;59.86
35848;BME280;22332;51.954;20.118;2023-02-18T13:14:22;99412.80;;;7.79;59.46
35848;BME280;22332;51.954;20.118;2023-02-18T13:17:31;99410.67;;;7.79;59.83
35848;BME280;22332;51.954;20.118;2023-02-18T13:20:41;99411.44;;;7.83;59.54
35848;BME280;22332;51.954;20.118;2023-02-18T13:23:53;99408.98;;;7.83;60.34
35848;BME280;22332;51.954;20.118;2023-02-18T13:27:07;99406.36;;;7.90;60.28
35848;BME280;22332;51.954;20.118;2023-02-18T13:30:24;99404.77;;;7.95;60.02
35848;BME280;22332;51.954;20.118;2023-02-18T13:33:39;99411.45;;;7.97;60.12
35848;BME280;22332;51.954;20.118;2023-02-18T13:36:58;99407.57;;;7.96;60.06
35848;BME280;22332;51.954;20.118;2023-02-18T13:40:16;99403.19;;;7.97;60.13
35848;BME280;22332;51.954;20.118;2023-02-18T13:43:30;99401.88;;;8.01;60.30
35848;BME280;22332;51.954;20.118;2023-02-18T13:46:49;99406.93;;;8.02;59.83
35848;BME280;22332;51.954;20.118;2023-02-18T13:49:55;99407.48;;;7.97;59.93
35848;BME280;22332;51.954;20.118;2023-02-18T13:53:21;99404.61;;;7.95;59.89
35848;BME280;22332;51.954;20.118;2023-02-18T13:56:30;99394.08;;;7.94;59.86
35848;BME280;22332;51.954;20.118;2023-02-18T13:59:42;99384.23;;;7.90;59.77
35848;BME280;22332;51.954;20.118;2023-02-18T14:03:01;99378.63;;;7.88;59.76
35848;BME280;22332;51.954;20.118;2023-02-18T14:06:18;99372.07;;;7.91;60.16
35848;BME280;22332;51.954;20.118;2023-02-18T14:09:38;99372.85;;;7.92;59.90
35848;BME280;22332;51.954;20.118;2023-02-18T14:13:16;99363.21;;;7.91;60.18
35848;BME280;22332;51.954;20.118;2023-02-18T14:16:22;99354.97;;;7.91;60.33
35848;BME280;22332;51.954;20.118;2023-02-18T14:19:29;99347.20;;;7.89;59.35
35848;BME280;22332;51.954;20.118;2023-02-18T14:22:45;99338.44;;;7.84;60.20
35848;BME280;22332;51.954;20.118;2023-02-18T14:25:53;99327.51;;;7.83;60.20
35848;BME280;22332;51.954;20.118;2023-02-18T14:29:06;99317.11;;;7.85;60.28
35848;BME280;22332;51.954;20.118;2023-02-18T14:32:15;99313.59;;;7.84;60.45
35848;BME280;22332;51.954;20.118;2023-02-18T14:35:28;99308.20;;;7.85;60.60
35848;BME280;22332;51.954;20.118;2023-02-18T14:38:45;99295.66;;;7.85;60.51
35848;BME280;22332;51.954;20.118;2023-02-18T14:41:59;99288.67;;;7.82;60.95
35848;BME280;22332;51.954;20.118;2023-02-18T14:45:18;99297.06;;;7.79;61.06
35848;BME280;22332;51.954;20.118;2023-02-18T14:48:44;99293.63;;;7.71;61.52
35848;BME280;22332;51.954;20.118;2023-02-18T14:51:54;99288.38;;;7.63;61.73
35848;BME280;22332;51.954;20.118;2023-02-18T14:55:03;99289.45;;;7.51;62.25
35848;BME280;22332;51.954;20.118;2023-02-18T14:58:16;99306.17;;;7.43;62.42
35848;BME280;22332;51.954;20.118;2023-02-18T15:01:29;99312.52;;;7.32;62.72
35848;BME280;22332;51.954;20.118;2023-02-18T15:04:35;99310.65;;;7.18;62.90
35848;BME280;22332;51.954;20.118;2023-02-18T15:07:40;99307.31;;;7.07;63.18
35848;BME280;22332;51.954;20.118;2023-02-18T15:10:47;99300.17;;;7.04;63.16
35848;BME280;22332;51.954;20.118;2023-02-18T15:13:54;99299.61;;;7.04;63.39
35848;BME280;22332;51.954;20.118;2023-02-18T15:17:00;99297.35;;;7.00;63.95
35848;BME280;22332;51.954;20.118;2023-02-18T15:20:09;99303.89;;;6.92;64.34
35848;BME280;22332;51.954;20.118;2023-02-18T15:23:17;99301.09;;;6.84;64.71
35848;BME280;22332;51.954;20.118;2023-02-18T15:26:22;99299.50;;;6.74;65.42
35848;BME280;22332;51.954;20.118;2023-02-18T15:29:30;99299.26;;;6.67;65.59
35848;BME280;22332;51.954;20.118;2023-02-18T15:32:38;99297.65;;;6.65;66.07
35848;BME280;22332;51.954;20.118;2023-02-18T15:35:44;99304.31;;;6.66;65.95
35848;BME280;22332;51.954;20.118;2023-02-18T15:38:49;99307.52;;;6.73;65.97
35848;BME280;22332;51.954;20.118;2023-02-18T15:41:56;99312.69;;;6.74;66.40
35848;BME280;22332;51.954;20.118;2023-02-18T15:45:12;99307.62;;;6.72;66.89
35848;BME280;22332;51.954;20.118;2023-02-18T15:48:29;99298.15;;;6.67;67.06
35848;BME280;22332;51.954;20.118;2023-02-18T15:51:36;99307.87;;;6.60;67.37
35848;BME280;22332;51.954;20.118;2023-02-18T15:54:43;99319.41;;;6.56;67.55
35848;BME280;22332;51.954;20.118;2023-02-18T15:57:49;99317.94;;;6.49;67.83
35848;BME280;22332;51.954;20.118;2023-02-18T16:00:57;99315.79;;;6.39;67.84
35848;BME280;22332;51.954;20.118;2023-02-18T16:04:06;99312.98;;;6.32;67.94
35848;BME280;22332;51.954;20.118;2023-02-18T16:07:24;99312.95;;;6.21;68.40
35848;BME280;22332;51.954;20.118;2023-02-18T16:10:48;99312.08;;;6.06;69.82
35848;BME280;22332;51.954;20.118;2023-02-18T16:13:54;99314.85;;;5.86;69.36
35848;BME280;22332;51.954;20.118;2023-02-18T16:17:06;99312.59;;;5.78;70.45
35848;BME280;22332;51.954;20.118;2023-02-18T16:20:23;99303.77;;;5.65;70.37
35848;BME280;22332;51.954;20.118;2023-02-18T16:23:41;99308.09;;;5.64;70.01
35848;BME280;22332;51.954;20.118;2023-02-18T16:26:49;99308.09;;;5.67;69.83
35848;BME280;22332;51.954;20.118;2023-02-18T16:29:59;99310.84;;;5.63;69.95
35848;BME280;22332;51.954;20.118;2023-02-18T16:33:05;99309.35;;;5.58;69.56
35848;BME280;22332;51.954;20.118;2023-02-18T16:36:13;99313.77;;;5.58;69.61
35848;BME280;22332;51.954;20.118;2023-02-18T16:39:20;99307.94;;;5.56;70.13
35848;BME280;22332;51.954;20.118;2023-02-18T16:42:25;99304.63;;;5.52;69.92
35848;BME280;22332;51.954;20.118;2023-02-18T16:45:37;99305.94;;;5.43;70.06
35848;BME280;22332;51.954;20.118;2023-02-18T16:48:44;99301.29;;;5.40;70.25
35848;BME280;22332;51.954;20.118;2023-02-18T16:51:50;99299.75;;;5.43;70.62